createdAt,value
2019-02-27T00:00:47.437Z,954.29
2019-02-27T00:01:55.513Z,954.27
2019-02-27T00:03:03.618Z,954.24
2019-02-27T00:04:11.614Z,954.26
2019-02-27T00:05:19.766Z,954.27
2019-02-27T00:06:27.723Z,954.25
2019-02-27T00:07:35.792Z,954.22
2019-02-27T00:08:43.865Z,954.22
2019-02-27T00:09:51.912Z,954.22
2019-02-27T00:11:00.051Z,954.22
2019-02-27T00:12:08.005Z,954.22
2019-02-27T00:13:16.079Z,954.20
2019-02-27T00:14:24.128Z,954.21
2019-02-27T00:15:32.170Z,954.22
2019-02-27T00:16:41.702Z,954.23
2019-02-27T00:17:51.053Z,954.23
2019-02-27T00:18:58.501Z,954.24
2019-02-27T00:20:05.238Z,954.21
2019-02-27T00:21:12.481Z,954.22
2019-02-27T00:22:20.636Z,954.23
2019-02-27T00:23:28.599Z,954.20
2019-02-27T00:24:36.632Z,954.21
2019-02-27T00:25:44.704Z,954.17
2019-02-27T00:26:52.766Z,954.15
2019-02-27T00:28:00.868Z,954.14
2019-02-27T00:29:08.896Z,954.18
2019-02-27T00:30:16.954Z,954.15
2019-02-27T00:31:24.998Z,954.18
2019-02-27T00:32:33.085Z,954.14
2019-02-27T00:33:41.193Z,954.14
2019-02-27T00:34:49.162Z,954.10
2019-02-27T00:35:57.201Z,954.13
2019-02-27T00:37:05.263Z,954.13
2019-02-27T00:38:13.375Z,954.11
2019-02-27T00:39:21.383Z,954.14
2019-02-27T00:40:29.449Z,954.12
2019-02-27T00:41:37.484Z,954.08
2019-02-27T00:42:45.589Z,954.11
2019-02-27T00:43:53.617Z,954.12
2019-02-27T00:45:01.666Z,954.06
2019-02-27T00:46:10.692Z,954.02
2019-02-27T00:47:19.959Z,954.01
2019-02-27T00:48:26.151Z,954.00
2019-02-27T00:49:34.060Z,953.96
2019-02-27T00:50:41.944Z,954.01
2019-02-27T00:51:50.023Z,953.99
2019-02-27T00:52:58.058Z,953.99
2019-02-27T00:54:06.235Z,954.04
2019-02-27T00:55:14.181Z,954.05
2019-02-27T00:56:22.253Z,954.04
2019-02-27T00:57:30.298Z,954.03
2019-02-27T00:58:38.355Z,954.03
2019-02-27T00:59:46.558Z,954.00
2019-02-27T01:00:54.467Z,954.01
2019-02-27T01:02:02.543Z,954.00
2019-02-27T01:03:10.569Z,953.97
2019-02-27T01:04:18.644Z,953.97
2019-02-27T01:05:26.812Z,953.98
2019-02-27T01:06:34.752Z,954.00
2019-02-27T01:07:42.823Z,954.01
2019-02-27T01:08:50.852Z,954.05
2019-02-27T01:09:58.929Z,954.03
2019-02-27T01:11:07.104Z,954.01
2019-02-27T01:12:15.046Z,954.00
2019-02-27T01:13:23.105Z,954.01
2019-02-27T01:14:31.150Z,953.95
2019-02-27T01:15:41.737Z,953.94
2019-02-27T01:16:47.644Z,953.91
2019-02-27T01:17:57.376Z,953.88
2019-02-27T01:19:04.624Z,953.91
2019-02-27T01:20:12.021Z,953.90
2019-02-27T01:21:20.056Z,953.93
2019-02-27T01:22:27.598Z,953.89
2019-02-27T01:23:35.614Z,953.89
2019-02-27T01:24:43.660Z,953.86
2019-02-27T01:25:55.952Z,953.88
2019-02-27T01:27:04.118Z,953.90
2019-02-27T01:28:10.796Z,953.84
2019-02-27T01:29:18.049Z,953.84
2019-02-27T01:30:24.310Z,953.82
2019-02-27T01:31:32.029Z,953.81
2019-02-27T01:32:40.110Z,953.76
2019-02-27T01:33:48.115Z,953.75
2019-02-27T01:34:56.163Z,953.72
2019-02-27T01:36:04.236Z,953.69
2019-02-27T01:37:12.399Z,953.69
2019-02-27T01:38:20.408Z,953.66
2019-02-27T01:39:28.431Z,953.66
2019-02-27T01:40:36.463Z,953.64
2019-02-27T01:41:44.524Z,953.59
2019-02-27T01:42:52.573Z,953.64
2019-02-27T01:44:00.710Z,953.64
2019-02-27T01:45:08.693Z,953.59
2019-02-27T01:46:16.749Z,953.54
2019-02-27T01:47:24.818Z,953.53
2019-02-27T01:48:32.851Z,953.52
2019-02-27T01:49:41.019Z,953.51
2019-02-27T01:50:48.977Z,953.51
2019-02-27T01:51:59.113Z,953.53
2019-02-27T01:53:07.307Z,953.51
2019-02-27T01:54:14.983Z,953.49
2019-02-27T01:55:22.377Z,953.47
2019-02-27T01:56:29.657Z,953.44
2019-02-27T01:57:37.405Z,953.43
2019-02-27T01:58:45.363Z,953.39
2019-02-27T01:59:53.430Z,953.43
2019-02-27T02:01:01.626Z,953.43
2019-02-27T02:02:09.534Z,953.41
2019-02-27T02:03:17.565Z,953.44
2019-02-27T02:04:25.649Z,953.39
2019-02-27T02:05:33.729Z,953.42
2019-02-27T02:06:41.868Z,953.37
2019-02-27T02:07:49.885Z,953.35
2019-02-27T02:08:57.863Z,953.33
2019-02-27T02:10:05.932Z,953.31
2019-02-27T02:11:13.990Z,953.31
2019-02-27T02:12:22.158Z,953.28
2019-02-27T02:13:30.126Z,953.30
2019-02-27T02:14:38.153Z,953.31
2019-02-27T02:15:46.211Z,953.27
2019-02-27T02:16:54.276Z,953.27
2019-02-27T02:18:02.375Z,953.27
2019-02-27T02:19:10.405Z,953.23
2019-02-27T02:20:18.431Z,953.23
2019-02-27T02:21:26.508Z,953.13
2019-02-27T02:22:34.653Z,953.15
2019-02-27T02:23:44.866Z,953.17
2019-02-27T02:24:51.884Z,953.14
2019-02-27T02:26:01.045Z,953.14
2019-02-27T02:27:08.123Z,953.14
2019-02-27T02:28:15.489Z,953.13
2019-02-27T02:29:22.908Z,953.10
2019-02-27T02:30:31.015Z,953.07
2019-02-27T02:31:41.576Z,953.09
2019-02-27T02:32:51.900Z,953.08
2019-02-27T02:33:55.589Z,953.07
2019-02-27T02:35:03.184Z,953.12
2019-02-27T02:36:11.235Z,953.09
2019-02-27T02:37:19.290Z,953.09
2019-02-27T02:38:27.414Z,953.07
2019-02-27T02:39:35.508Z,953.03
2019-02-27T02:40:43.466Z,953.05
2019-02-27T02:41:51.536Z,953.00
2019-02-27T02:43:03.063Z,952.97
2019-02-27T02:44:07.617Z,953.00
2019-02-27T02:45:15.798Z,952.99
2019-02-27T02:46:23.740Z,952.99
2019-02-27T02:47:31.799Z,953.01
2019-02-27T02:48:39.871Z,952.98
2019-02-27T02:49:47.906Z,952.98
2019-02-27T02:50:56.091Z,952.97
2019-02-27T02:52:05.512Z,952.97
2019-02-27T02:53:12.219Z,952.98
2019-02-27T02:54:20.148Z,952.98
2019-02-27T02:55:28.199Z,952.98
2019-02-27T02:56:36.357Z,952.98
2019-02-27T02:57:44.329Z,952.96
2019-02-27T02:58:52.378Z,952.90
2019-02-27T03:00:01.056Z,952.93
2019-02-27T03:01:13.872Z,952.90
2019-02-27T03:02:16.655Z,952.91
2019-02-27T03:03:24.603Z,952.93
2019-02-27T03:04:32.669Z,952.94
2019-02-27T03:05:40.720Z,952.91
2019-02-27T03:06:48.782Z,952.92
2019-02-27T03:07:56.884Z,952.87
2019-02-27T03:09:04.993Z,952.87
2019-02-27T03:10:12.940Z,952.85
2019-02-27T03:11:20.996Z,952.86
2019-02-27T03:12:30.918Z,952.85
2019-02-27T03:13:41.444Z,952.86
2019-02-27T03:14:45.307Z,952.86
2019-02-27T03:15:53.231Z,952.90
2019-02-27T03:17:01.281Z,952.91
2019-02-27T03:18:09.494Z,952.93
2019-02-27T03:19:17.422Z,952.95
2019-02-27T03:20:25.471Z,952.92
2019-02-27T03:21:33.513Z,952.93
2019-02-27T03:22:41.786Z,952.90
2019-02-27T03:23:52.014Z,952.88
2019-02-27T03:25:03.453Z,952.88
2019-02-27T03:26:05.753Z,952.89
2019-02-27T03:27:13.814Z,952.88
2019-02-27T03:28:21.879Z,952.87
2019-02-27T03:29:30.014Z,952.87
2019-02-27T03:30:37.994Z,952.83
2019-02-27T03:31:46.036Z,952.83
2019-02-27T03:32:54.095Z,952.82
2019-02-27T03:34:07.705Z,952.81
2019-02-27T03:35:10.292Z,952.78
2019-02-27T03:36:18.254Z,952.73
2019-02-27T03:37:26.306Z,952.78
2019-02-27T03:38:34.374Z,952.73
2019-02-27T03:39:42.446Z,952.69
2019-02-27T03:40:50.582Z,952.71
2019-02-27T03:41:59.506Z,952.73
2019-02-27T03:43:09.985Z,952.72
2019-02-27T03:44:20.183Z,952.69
2019-02-27T03:45:22.710Z,952.74
2019-02-27T03:46:30.853Z,952.67
2019-02-27T03:47:38.811Z,952.71
2019-02-27T03:48:46.895Z,952.69
2019-02-27T03:49:54.941Z,952.66
2019-02-27T03:51:03.012Z,952.68
2019-02-27T03:52:11.148Z,952.62
2019-02-27T03:53:19.115Z,952.65
2019-02-27T03:54:27.175Z,952.67
2019-02-27T03:55:35.201Z,952.63
2019-02-27T03:56:44.605Z,952.64
2019-02-27T03:57:54.824Z,952.64
2019-02-27T03:59:05.489Z,952.62
2019-02-27T04:00:07.472Z,952.57
2019-02-27T04:01:15.496Z,952.59
2019-02-27T04:02:23.548Z,952.60
2019-02-27T04:03:31.624Z,952.57
2019-02-27T04:04:39.671Z,952.58
2019-02-27T04:05:47.710Z,952.58
2019-02-27T04:06:56.241Z,952.64
2019-02-27T04:08:07.480Z,952.66
2019-02-27T04:09:11.900Z,952.63
2019-02-27T04:10:19.944Z,952.63
2019-02-27T04:11:27.971Z,952.63
2019-02-27T04:12:36.152Z,952.65
2019-02-27T04:13:44.117Z,952.68
2019-02-27T04:14:52.153Z,952.69
2019-02-27T04:16:00.231Z,952.72
2019-02-27T04:17:08.323Z,952.68
2019-02-27T04:18:16.425Z,952.64
2019-02-27T04:19:24.397Z,952.66
2019-02-27T04:20:32.448Z,952.64
2019-02-27T04:21:40.507Z,952.65
2019-02-27T04:22:48.566Z,952.65
2019-02-27T04:23:56.716Z,952.63
2019-02-27T04:25:04.673Z,952.65
2019-02-27T04:26:12.731Z,952.65
2019-02-27T04:27:21.416Z,952.64
2019-02-27T04:28:29.930Z,952.60
2019-02-27T04:29:40.755Z,952.61
2019-02-27T04:30:44.961Z,952.61
2019-02-27T04:31:53.013Z,952.59
2019-02-27T04:33:01.075Z,952.66
2019-02-27T04:34:09.133Z,952.65
2019-02-27T04:35:17.282Z,952.64
2019-02-27T04:36:25.248Z,952.66
2019-02-27T04:37:33.299Z,952.65
2019-02-27T04:38:41.338Z,952.64
2019-02-27T04:39:49.404Z,952.61
2019-02-27T04:40:57.534Z,952.65
2019-02-27T04:42:05.522Z,952.62
2019-02-27T04:43:13.618Z,952.66
2019-02-27T04:44:21.656Z,952.70
2019-02-27T04:45:29.674Z,952.65
2019-02-27T04:46:37.805Z,952.64
2019-02-27T04:47:45.792Z,952.66
2019-02-27T04:48:53.852Z,952.63
2019-02-27T04:50:01.919Z,952.63
2019-02-27T04:51:09.979Z,952.63
2019-02-27T04:52:18.099Z,952.63
2019-02-27T04:53:26.079Z,952.63
2019-02-27T04:54:35.062Z,952.63
2019-02-27T04:55:42.197Z,952.68
2019-02-27T04:56:50.231Z,952.62
2019-02-27T04:57:58.420Z,952.61
2019-02-27T04:59:06.375Z,952.62
2019-02-27T05:00:14.404Z,952.62
2019-02-27T05:01:22.463Z,952.57
2019-02-27T05:02:30.612Z,952.60
2019-02-27T05:03:38.572Z,952.55
2019-02-27T05:04:46.633Z,952.58
2019-02-27T05:05:54.700Z,952.54
2019-02-27T05:07:02.744Z,952.57
2019-02-27T05:08:10.842Z,952.57
2019-02-27T05:09:18.863Z,952.59
2019-02-27T05:10:26.909Z,952.60
2019-02-27T05:11:34.977Z,952.63
2019-02-27T05:12:47.747Z,952.58
2019-02-27T05:13:53.991Z,952.59
2019-02-27T05:15:00.796Z,952.61
2019-02-27T05:16:07.171Z,952.60
2019-02-27T05:17:15.254Z,952.59
2019-02-27T05:18:23.305Z,952.56
2019-02-27T05:19:31.449Z,952.54
2019-02-27T05:20:39.413Z,952.54
2019-02-27T05:21:47.437Z,952.52
2019-02-27T05:23:00.038Z,952.50
2019-02-27T05:24:05.131Z,952.49
2019-02-27T05:25:14.197Z,952.47
2019-02-27T05:26:19.716Z,952.51
2019-02-27T05:27:27.754Z,952.51
2019-02-27T05:28:35.816Z,952.49
2019-02-27T05:29:43.965Z,952.50
2019-02-27T05:30:52.029Z,952.48
2019-02-27T05:31:59.985Z,952.47
2019-02-27T05:33:08.021Z,952.48
2019-02-27T05:34:16.092Z,952.51
2019-02-27T05:35:24.421Z,952.44
2019-02-27T05:36:32.413Z,952.49
2019-02-27T05:37:40.247Z,952.45
2019-02-27T05:38:48.308Z,952.43
2019-02-27T05:39:56.364Z,952.46
2019-02-27T05:41:04.418Z,952.46
2019-02-27T05:42:13.214Z,952.44
2019-02-27T05:43:20.527Z,952.43
2019-02-27T05:44:28.593Z,952.44
2019-02-27T05:45:37.556Z,952.37
2019-02-27T05:46:44.698Z,952.37
2019-02-27T05:47:53.401Z,952.37
2019-02-27T05:49:00.813Z,952.37
2019-02-27T05:50:08.880Z,952.35
2019-02-27T05:51:17.028Z,952.36
2019-02-27T05:52:24.979Z,952.33
2019-02-27T05:53:33.049Z,952.35
2019-02-27T05:54:41.146Z,952.35
2019-02-27T05:55:49.180Z,952.38
2019-02-27T05:56:57.196Z,952.38
2019-02-27T05:58:05.370Z,952.38
2019-02-27T05:59:13.320Z,952.35
2019-02-27T06:00:21.385Z,952.34
2019-02-27T06:01:29.655Z,952.41
2019-02-27T06:02:37.470Z,952.38
2019-02-27T06:03:45.662Z,952.40
2019-02-27T06:04:56.089Z,952.39
2019-02-27T06:06:01.673Z,952.39
2019-02-27T06:07:09.727Z,952.37
2019-02-27T06:08:17.754Z,952.38
2019-02-27T06:09:25.885Z,952.39
2019-02-27T06:10:33.908Z,952.38
2019-02-27T06:11:41.943Z,952.41
2019-02-27T06:12:50.020Z,952.46
2019-02-27T06:13:58.143Z,952.42
2019-02-27T06:15:06.123Z,952.45
2019-02-27T06:16:14.177Z,952.45
2019-02-27T06:17:22.387Z,952.51
2019-02-27T06:18:30.631Z,952.50
2019-02-27T06:19:38.498Z,952.49
2019-02-27T06:20:46.425Z,952.50
2019-02-27T06:21:56.257Z,952.51
2019-02-27T06:23:04.382Z,952.47
2019-02-27T06:24:12.412Z,952.50
2019-02-27T06:25:23.124Z,952.57
2019-02-27T06:26:26.700Z,952.54
2019-02-27T06:27:37.150Z,952.53
2019-02-27T06:28:42.797Z,952.50
2019-02-27T06:29:50.861Z,952.52
2019-02-27T06:30:59.037Z,952.52
2019-02-27T06:32:06.970Z,952.52
2019-02-27T06:33:15.118Z,952.54
2019-02-27T06:34:24.796Z,952.54
2019-02-27T06:35:33.207Z,952.54
2019-02-27T06:36:42.739Z,952.57
2019-02-27T06:37:50.353Z,952.60
2019-02-27T06:38:55.334Z,952.56
2019-02-27T06:40:04.698Z,952.60
2019-02-27T06:41:15.316Z,952.53
2019-02-27T06:42:19.567Z,952.59
2019-02-27T06:43:27.907Z,952.58
2019-02-27T06:44:36.580Z,952.59
2019-02-27T06:45:46.344Z,952.62
2019-02-27T06:46:53.729Z,952.65
2019-02-27T06:47:59.766Z,952.63
2019-02-27T06:49:07.871Z,952.65
2019-02-27T06:50:15.902Z,952.60
2019-02-27T06:51:23.948Z,952.64
2019-02-27T06:52:32.051Z,952.71
2019-02-27T06:53:40.056Z,952.74
2019-02-27T06:54:51.889Z,952.78
2019-02-27T06:55:56.172Z,952.85
2019-02-27T06:57:07.477Z,952.83
2019-02-27T06:58:14.767Z,952.87
2019-02-27T06:59:24.564Z,952.90
2019-02-27T07:00:28.451Z,952.85
2019-02-27T07:01:36.446Z,952.85
2019-02-27T07:02:44.561Z,952.87
2019-02-27T07:03:52.568Z,952.90
2019-02-27T07:05:00.728Z,952.90
2019-02-27T07:06:08.701Z,952.82
2019-02-27T07:07:16.754Z,952.77
2019-02-27T07:08:24.865Z,952.81
2019-02-27T07:09:32.878Z,952.85
2019-02-27T07:10:40.976Z,952.80
2019-02-27T07:11:49.038Z,952.70
2019-02-27T07:12:57.148Z,952.70
2019-02-27T07:14:05.096Z,952.76
2019-02-27T07:15:13.444Z,952.81
2019-02-27T07:16:22.877Z,952.86
2019-02-27T07:17:31.671Z,952.83
2019-02-27T07:18:41.418Z,952.75
2019-02-27T07:19:47.347Z,952.73
2019-02-27T07:20:55.575Z,952.73
2019-02-27T07:22:01.519Z,952.71
2019-02-27T07:23:09.575Z,952.71
2019-02-27T07:24:17.673Z,952.71
2019-02-27T07:25:25.698Z,952.70
2019-02-27T07:26:33.758Z,952.73
2019-02-27T07:27:41.819Z,952.72
2019-02-27T07:28:49.885Z,952.75
2019-02-27T07:29:57.980Z,952.85
2019-02-27T07:31:06.005Z,952.75
2019-02-27T07:32:14.087Z,952.73
2019-02-27T07:33:22.153Z,952.75
2019-02-27T07:34:30.169Z,952.72
2019-02-27T07:35:38.332Z,952.70
2019-02-27T07:36:46.408Z,952.71
2019-02-27T07:37:54.344Z,952.75
2019-02-27T07:39:02.409Z,952.72
2019-02-27T07:40:10.467Z,952.76
2019-02-27T07:41:20.871Z,952.88
2019-02-27T07:42:26.593Z,952.90
2019-02-27T07:43:34.947Z,952.95
2019-02-27T07:44:42.716Z,953.06
2019-02-27T07:45:50.773Z,953.13
2019-02-27T07:46:58.935Z,952.75
2019-02-27T07:48:06.916Z,952.99
2019-02-27T07:49:14.971Z,953.07
2019-02-27T07:50:23.031Z,953.02
2019-02-27T07:51:31.100Z,952.81
2019-02-27T07:52:39.193Z,952.64
2019-02-27T07:53:47.185Z,952.69
2019-02-27T07:54:55.255Z,952.65
2019-02-27T07:56:03.321Z,952.74
2019-02-27T07:57:11.377Z,952.76
2019-02-27T07:58:19.551Z,952.96
2019-02-27T07:59:27.490Z,953.19
2019-02-27T08:00:35.569Z,953.04
2019-02-27T08:01:44.093Z,952.65
2019-02-27T08:02:51.801Z,952.52
2019-02-27T08:03:59.756Z,952.52
2019-02-27T08:05:07.814Z,952.51
2019-02-27T08:06:15.879Z,952.52
2019-02-27T08:07:23.949Z,952.53
2019-02-27T08:08:32.000Z,952.52
2019-02-27T08:09:40.067Z,952.46
2019-02-27T08:10:48.106Z,952.46
2019-02-27T08:11:56.187Z,952.46
2019-02-27T08:13:04.293Z,952.48
2019-02-27T08:14:13.047Z,952.37
2019-02-27T08:15:20.380Z,952.42
2019-02-27T08:16:28.442Z,952.40
2019-02-27T08:17:36.583Z,952.37
2019-02-27T08:18:44.551Z,952.37
2019-02-27T08:19:52.627Z,952.42
2019-02-27T08:21:00.702Z,952.40
2019-02-27T08:22:08.746Z,952.45
2019-02-27T08:23:16.901Z,952.42
2019-02-27T08:24:25.001Z,952.40
2019-02-27T08:25:32.933Z,952.39
2019-02-27T08:26:41.012Z,952.40
2019-02-27T08:27:49.053Z,952.43
2019-02-27T08:28:57.190Z,952.40
2019-02-27T08:30:05.188Z,952.42
2019-02-27T08:31:13.234Z,952.36
2019-02-27T08:32:21.330Z,952.34
2019-02-27T08:33:29.360Z,952.33
2019-02-27T08:34:37.495Z,952.31
2019-02-27T08:35:45.488Z,952.30
2019-02-27T08:36:53.552Z,952.32
2019-02-27T08:38:02.702Z,952.30
2019-02-27T08:39:09.669Z,952.32
2019-02-27T08:40:17.816Z,952.32
2019-02-27T08:41:25.797Z,952.29
2019-02-27T08:42:36.782Z,952.32
2019-02-27T08:43:41.956Z,952.33
2019-02-27T08:44:49.977Z,952.36
2019-02-27T08:46:02.055Z,952.38
2019-02-27T08:47:07.761Z,952.41
2019-02-27T08:48:16.822Z,952.37
2019-02-27T08:49:24.892Z,952.37
2019-02-27T08:50:31.630Z,952.36
2019-02-27T08:51:39.734Z,952.35
2019-02-27T08:52:50.031Z,952.31
2019-02-27T08:53:58.947Z,952.28
2019-02-27T08:55:05.354Z,952.25
2019-02-27T08:56:12.289Z,952.25
2019-02-27T08:57:18.763Z,952.30
2019-02-27T08:58:29.194Z,952.30
2019-02-27T08:59:36.872Z,952.36
2019-02-27T09:00:47.054Z,952.37
2019-02-27T09:01:55.145Z,952.35
2019-02-27T09:03:02.320Z,952.36
2019-02-27T09:04:11.159Z,952.37
2019-02-27T09:05:19.473Z,952.33
2019-02-27T09:06:27.235Z,952.30
2019-02-27T09:07:33.867Z,952.34
2019-02-27T09:08:43.033Z,952.31
2019-02-27T09:09:51.114Z,952.28
2019-02-27T09:10:55.417Z,952.27
2019-02-27T09:12:03.477Z,952.29
2019-02-27T09:13:11.588Z,952.26
2019-02-27T09:14:19.607Z,952.28
2019-02-27T09:15:27.641Z,952.24
2019-02-27T09:16:35.711Z,952.21
2019-02-27T09:17:43.820Z,952.25
2019-02-27T09:18:51.857Z,952.22
2019-02-27T09:19:59.912Z,952.22
2019-02-27T09:21:07.950Z,952.27
2019-02-27T09:22:16.041Z,952.22
2019-02-27T09:23:24.163Z,952.21
2019-02-27T09:24:32.293Z,952.16
2019-02-27T09:25:40.226Z,952.20
2019-02-27T09:26:48.277Z,952.15
2019-02-27T09:27:56.452Z,952.15
2019-02-27T09:29:04.391Z,952.13
2019-02-27T09:30:12.469Z,952.16
2019-02-27T09:31:20.538Z,952.12
2019-02-27T09:32:28.613Z,952.12
2019-02-27T09:33:38.952Z,952.03
2019-02-27T09:34:44.736Z,952.02
2019-02-27T09:35:52.784Z,952.02
2019-02-27T09:37:00.851Z,952.00
2019-02-27T09:38:08.919Z,952.05
2019-02-27T09:39:17.070Z,952.04
2019-02-27T09:40:25.147Z,952.07
2019-02-27T09:41:33.120Z,952.04
2019-02-27T09:42:41.174Z,951.99
2019-02-27T09:43:49.241Z,951.99
2019-02-27T09:44:57.383Z,952.01
2019-02-27T09:46:05.395Z,951.94
2019-02-27T09:47:13.422Z,951.95
2019-02-27T09:48:21.497Z,951.94
2019-02-27T09:49:29.538Z,951.92
2019-02-27T09:50:37.694Z,951.91
2019-02-27T09:51:45.671Z,951.90
2019-02-27T09:52:53.743Z,951.92
2019-02-27T09:54:01.789Z,951.92
2019-02-27T09:55:09.867Z,951.90
2019-02-27T09:56:18.020Z,951.95
2019-02-27T09:57:27.133Z,951.94
2019-02-27T09:58:34.057Z,951.95
2019-02-27T09:59:42.120Z,951.94
2019-02-27T10:00:50.177Z,951.89
2019-02-27T10:01:58.687Z,951.89
2019-02-27T10:03:06.308Z,951.85
2019-02-27T10:04:14.393Z,951.90
2019-02-27T10:05:22.444Z,951.83
2019-02-27T10:06:30.544Z,951.81
2019-02-27T10:07:38.607Z,951.81
2019-02-27T10:08:46.637Z,951.80
2019-02-27T10:09:54.692Z,951.75
2019-02-27T10:11:02.777Z,951.75
2019-02-27T10:12:10.945Z,951.73
2019-02-27T10:13:18.933Z,951.72
2019-02-27T10:14:26.973Z,951.71
2019-02-27T10:15:35.057Z,951.72
2019-02-27T10:16:43.082Z,951.70
2019-02-27T10:17:51.204Z,951.73
2019-02-27T10:18:59.238Z,951.69
2019-02-27T10:20:07.279Z,951.69
2019-02-27T10:21:15.349Z,951.68
2019-02-27T10:22:24.620Z,951.67
2019-02-27T10:23:33.288Z,951.68
2019-02-27T10:24:41.363Z,951.65
2019-02-27T10:25:49.981Z,951.59
2019-02-27T10:26:57.448Z,951.61
2019-02-27T10:28:05.657Z,951.58
2019-02-27T10:29:14.223Z,951.54
2019-02-27T10:30:21.870Z,951.50
2019-02-27T10:31:29.936Z,951.47
2019-02-27T10:32:38.077Z,951.48
2019-02-27T10:33:46.047Z,951.47
2019-02-27T10:36:04.815Z,951.48
2019-02-27T10:37:13.841Z,951.47
2019-02-27T10:38:21.030Z,951.45
2019-02-27T10:39:29.023Z,951.44
2019-02-27T10:40:37.086Z,951.42
2019-02-27T10:41:49.570Z,951.40
2019-02-27T10:44:03.980Z,951.42
2019-02-27T10:45:11.960Z,951.42
2019-02-27T10:46:23.409Z,951.39
2019-02-27T10:47:28.045Z,951.36
2019-02-27T10:48:36.835Z,951.37
2019-02-27T10:49:44.310Z,951.39
2019-02-27T10:50:52.272Z,951.35
2019-02-27T10:52:00.554Z,951.33
2019-02-27T10:53:08.600Z,951.31
2019-02-27T10:54:16.659Z,951.32
2019-02-27T10:55:26.779Z,951.32
2019-02-27T10:56:32.785Z,951.25
2019-02-27T10:57:40.901Z,951.26
2019-02-27T10:58:48.932Z,951.28
2019-02-27T10:59:57.975Z,951.27
2019-02-27T11:01:06.161Z,951.29
2019-02-27T11:02:14.108Z,951.28
2019-02-27T11:03:23.607Z,951.22
2019-02-27T11:04:30.252Z,951.28
2019-02-27T11:05:38.332Z,951.27
2019-02-27T11:08:05.145Z,951.22
2019-02-27T11:10:23.892Z,951.21
2019-02-27T11:11:31.951Z,951.14
2019-02-27T11:12:40.116Z,951.21
2019-02-27T11:13:48.367Z,951.19
2019-02-27T11:14:56.165Z,951.14
2019-02-27T11:16:04.224Z,951.14
2019-02-27T11:17:12.297Z,951.16
2019-02-27T11:19:34.641Z,951.12
2019-02-27T11:20:40.717Z,951.09
2019-02-27T11:21:48.792Z,951.12
2019-02-27T11:22:56.913Z,951.10
2019-02-27T11:24:04.921Z,951.06
2019-02-27T11:25:13.013Z,951.03
2019-02-27T11:26:21.048Z,951.07
2019-02-27T11:27:29.110Z,951.10
2019-02-27T11:28:37.256Z,951.07
2019-02-27T11:29:45.248Z,951.02
2019-02-27T11:30:53.303Z,951.04
2019-02-27T11:32:01.385Z,950.95
2019-02-27T11:33:10.138Z,950.95
2019-02-27T11:34:18.159Z,950.93
2019-02-27T11:35:26.183Z,950.92
2019-02-27T11:36:34.930Z,950.93
2019-02-27T11:37:44.324Z,950.96
2019-02-27T11:38:50.468Z,950.88
2019-02-27T11:39:58.440Z,950.83
2019-02-27T11:41:06.499Z,950.81
2019-02-27T11:42:14.553Z,950.80
2019-02-27T11:43:22.639Z,950.79
2019-02-27T11:44:30.837Z,950.78
2019-02-27T11:45:38.786Z,950.73
2019-02-27T11:46:57.734Z,950.71
2019-02-27T11:47:54.911Z,950.75
2019-02-27T11:49:03.147Z,950.73
2019-02-27T11:50:11.148Z,950.70
2019-02-27T11:51:20.167Z,950.65
2019-02-27T11:52:28.589Z,950.66
2019-02-27T11:53:35.845Z,950.60
2019-02-27T11:54:43.875Z,950.65
2019-02-27T11:55:51.442Z,950.63
2019-02-27T11:56:59.441Z,950.57
2019-02-27T11:58:07.472Z,950.62
2019-02-27T11:59:15.571Z,950.60
2019-02-27T12:00:23.791Z,950.53
2019-02-27T12:01:32.213Z,950.49
2019-02-27T12:02:39.749Z,950.50
2019-02-27T12:03:47.816Z,950.47
2019-02-27T12:04:56.621Z,950.44
2019-02-27T12:06:05.261Z,950.41
2019-02-27T12:07:12.331Z,950.37
2019-02-27T12:08:22.335Z,950.33
2019-02-27T12:09:28.139Z,950.36
2019-02-27T12:10:36.223Z,950.33
2019-02-27T12:11:48.290Z,950.32
2019-02-27T12:12:52.426Z,950.35
2019-02-27T12:14:00.471Z,950.35
2019-02-27T12:15:09.072Z,950.29
2019-02-27T12:16:18.294Z,950.29
2019-02-27T12:17:25.671Z,950.28
2019-02-27T12:18:34.499Z,950.18
2019-02-27T12:19:43.956Z,950.18
2019-02-27T12:20:52.981Z,950.11
2019-02-27T12:21:59.272Z,950.03
2019-02-27T12:23:07.406Z,950.11
2019-02-27T12:24:13.019Z,950.06
2019-02-27T12:25:21.108Z,950.04
2019-02-27T12:26:29.172Z,950.00
2019-02-27T12:27:48.226Z,950.01
2019-02-27T12:28:45.404Z,950.00
2019-02-27T12:29:53.380Z,949.96
2019-02-27T12:31:01.484Z,949.94
2019-02-27T12:32:09.509Z,949.95
2019-02-27T12:33:17.555Z,949.87
2019-02-27T12:34:25.725Z,949.87
2019-02-27T12:35:33.695Z,949.86
2019-02-27T12:36:41.760Z,949.85
2019-02-27T12:37:49.822Z,949.88
2019-02-27T12:38:57.875Z,949.83
2019-02-27T12:40:06.064Z,949.86
2019-02-27T12:41:14.024Z,949.82
2019-02-27T12:42:22.086Z,949.80
2019-02-27T12:43:30.191Z,949.79
2019-02-27T12:44:38.222Z,949.73
2019-02-27T12:45:46.553Z,949.76
2019-02-27T12:46:54.475Z,949.73
2019-02-27T12:48:02.422Z,949.70
2019-02-27T12:49:10.494Z,949.73
2019-02-27T12:50:18.565Z,949.71
2019-02-27T12:51:26.731Z,949.69
2019-02-27T12:52:34.690Z,949.68
2019-02-27T12:53:42.778Z,949.70
2019-02-27T12:54:50.829Z,949.66
2019-02-27T12:55:58.914Z,949.65
2019-02-27T12:57:07.055Z,949.63
2019-02-27T12:58:15.024Z,949.64
2019-02-27T12:59:23.102Z,949.63
2019-02-27T13:00:31.166Z,949.67
2019-02-27T13:01:39.241Z,949.69
2019-02-27T13:02:47.338Z,949.69
2019-02-27T13:03:56.824Z,949.68
2019-02-27T13:05:03.433Z,949.64
2019-02-27T13:06:11.527Z,949.64
2019-02-27T13:07:19.664Z,949.64
2019-02-27T13:08:27.595Z,949.60
2019-02-27T13:09:35.695Z,949.60
2019-02-27T13:10:43.773Z,949.57
2019-02-27T13:11:51.832Z,949.55
2019-02-27T13:12:59.979Z,949.57
2019-02-27T13:14:07.974Z,949.60
2019-02-27T13:15:16.032Z,949.59
2019-02-27T13:16:24.109Z,949.53
2019-02-27T13:17:32.263Z,949.52
2019-02-27T13:18:40.242Z,949.52
2019-02-27T13:19:48.307Z,949.50
2019-02-27T13:20:56.375Z,949.47
2019-02-27T13:22:04.431Z,949.44
2019-02-27T13:23:12.562Z,949.44
2019-02-27T13:24:20.568Z,949.39
2019-02-27T13:25:30.251Z,949.42
2019-02-27T13:26:36.703Z,949.40
2019-02-27T13:27:44.881Z,949.36
2019-02-27T13:28:52.828Z,949.36
2019-02-27T13:30:08.574Z,949.38
2019-02-27T13:31:08.970Z,949.41
2019-02-27T13:32:17.048Z,949.40
2019-02-27T13:33:25.213Z,949.37
2019-02-27T13:34:33.171Z,949.39
2019-02-27T13:35:41.226Z,949.35
2019-02-27T13:36:49.297Z,949.35
2019-02-27T13:37:57.361Z,949.35
2019-02-27T13:39:05.592Z,949.31
2019-02-27T13:40:13.502Z,949.33
2019-02-27T13:41:23.108Z,949.31
2019-02-27T13:42:29.632Z,949.32
2019-02-27T13:43:37.735Z,949.29
2019-02-27T13:44:45.870Z,949.31
2019-02-27T13:45:53.860Z,949.31
2019-02-27T13:47:01.909Z,949.29
2019-02-27T13:48:10.024Z,949.29
2019-02-27T13:49:18.044Z,949.28
2019-02-27T13:50:26.909Z,949.28
2019-02-27T13:51:37.174Z,949.24
2019-02-27T13:52:44.498Z,949.23
2019-02-27T13:53:50.317Z,949.18
2019-02-27T13:54:58.374Z,949.22
2019-02-27T13:56:06.542Z,949.17
2019-02-27T13:57:14.515Z,949.17
2019-02-27T13:58:22.579Z,949.19
2019-02-27T13:59:30.633Z,949.19
2019-02-27T14:00:38.704Z,949.18
2019-02-27T14:01:46.857Z,949.13
2019-02-27T14:02:54.967Z,949.11
2019-02-27T14:04:02.923Z,949.09
2019-02-27T14:05:11.005Z,949.05
2019-02-27T14:06:19.049Z,949.05
2019-02-27T14:07:27.196Z,949.05
2019-02-27T14:08:35.196Z,949.08
2019-02-27T14:09:43.254Z,949.08
2019-02-27T14:10:53.294Z,949.07
2019-02-27T14:11:59.434Z,949.11
2019-02-27T14:13:09.649Z,949.13
2019-02-27T14:14:17.613Z,949.10
2019-02-27T14:15:26.718Z,949.10